Time;durP1;ratioP1;P1;durP2;ratioP2;P2;SDS_P1;SDS_P2;PMS_P1;PMS_P2;Temp;Humidity;BMP_temperature;BMP_pressure;BME280_temperature;BME280_humidity;BME280_pressure;Samples;Min_cycle;Max_cycle;Signal;HPM_P1;HPM_P2
2021/10/22 00:00:51;;;;;;;1.40;0.70;;;18.80;99.90;;;;;;4975539;28;20192;-85
2021/10/22 00:03:22;;;;;;;1.30;0.90;;;18.80;99.90;;;;;;4965569;28;20207;-85
2021/10/22 00:05:54;;;;;;;2.70;0.80;;;18.80;99.90;;;;;;4968580;28;20212;-85
2021/10/22 00:08:28;;;;;;;3.50;0.70;;;18.70;99.90;;;;;;4969810;28;20235;-84
2021/10/22 00:11:00;;;;;;;3.27;1.30;;;18.60;99.90;;;;;;4969694;28;20238;-85
2021/10/22 00:13:32;;;;;;;4.70;0.80;;;18.70;99.90;;;;;;4970753;28;20302;-85
2021/10/22 00:16:05;;;;;;;6.40;1.13;;;18.70;99.90;;;;;;4973259;28;20235;-84
2021/10/22 00:18:36;;;;;;;1.40;1.00;;;18.70;99.90;;;;;;4970380;28;20208;-85
2021/10/22 00:21:07;;;;;;;1.97;0.87;;;18.80;99.90;;;;;;4986741;28;20380;-85
2021/10/22 00:23:40;;;;;;;1.27;0.80;;;18.70;99.90;;;;;;4994721;28;20207;-85
2021/10/22 00:26:12;;;;;;;3.07;0.53;;;18.60;99.90;;;;;;4992830;28;20203;-84
2021/10/22 00:28:45;;;;;;;2.23;0.80;;;18.60;99.90;;;;;;4994076;28;20273;-85
2021/10/22 00:31:16;;;;;;;2.43;1.20;;;18.60;99.90;;;;;;4990879;28;20651;-85
2021/10/22 00:33:48;;;;;;;2.43;0.73;;;18.70;99.90;;;;;;4989790;28;20211;-85
2021/10/22 00:36:19;;;;;;;4.27;1.00;;;18.70;99.90;;;;;;4992916;28;20206;-87
2021/10/22 00:38:54;;;;;;;1.90;0.67;;;18.70;99.90;;;;;;4996175;28;20222;-88
2021/10/22 00:41:27;;;;;;;0.83;0.60;;;18.70;99.90;;;;;;4977280;28;20251;-88
2021/10/22 00:43:59;;;;;;;1.93;0.80;;;18.70;99.90;;;;;;4952802;29;20244;-87
2021/10/22 00:46:33;;;;;;;1.57;1.10;;;18.70;99.90;;;;;;4974349;28;20200;-88
2021/10/22 00:49:04;;;;;;;1.93;1.00;;;18.80;99.90;;;;;;4993366;28;20278;-89
2021/10/22 00:51:36;;;;;;;3.00;0.80;;;18.80;99.90;;;;;;4974193;28;20228;-89
2021/10/22 00:54:11;;;;;;;3.63;0.97;;;18.60;99.90;;;;;;4972698;28;20208;-89
2021/10/22 00:56:42;;;;;;;5.50;1.90;;;18.60;99.90;;;;;;4972795;28;20207;-89
2021/10/22 00:59:16;;;;;;;2.50;1.50;;;18.60;99.90;;;;;;4975393;28;20220;-90
2021/10/22 01:01:54;;;;;;;3.33;1.37;;;18.30;99.90;;;;;;4974044;29;20204;-90
2021/10/22 01:04:26;;;;;;;3.57;1.43;;;17.90;99.90;;;;;;4972959;28;20226;-89
2021/10/22 01:07:00;;;;;;;4.73;1.87;;;17.70;99.90;;;;;;4967765;28;20199;-89
2021/10/22 01:09:33;;;;;;;2.07;1.50;;;17.40;99.90;;;;;;4968264;28;20295;-89
2021/10/22 01:12:07;;;;;;;3.73;1.40;;;17.10;99.90;;;;;;4962645;28;20219;-90
2021/10/22 01:17:36;;;;;;;3.77;1.90;;;16.50;99.90;;;;;;5030375;28;20288;-88
2021/10/22 01:20:10;;;;;;;2.00;1.30;;;16.30;99.90;;;;;;5033522;28;20194;-90
2021/10/22 01:22:44;;;;;;;5.60;1.63;;;16.10;99.90;;;;;;5030554;28;21057;-89
2021/10/22 01:25:19;;;;;;;3.20;1.80;;;16.00;99.90;;;;;;5033443;22;20248;-91
2021/10/22 01:27:51;;;;;;;7.67;1.80;;;15.80;99.90;;;;;;5005750;28;20202;-90
2021/10/22 01:30:28;;;;;;;3.77;1.60;;;15.60;99.90;;;;;;5003793;28;20230;-89
2021/10/22 01:33:05;;;;;;;2.77;1.47;;;15.50;99.90;;;;;;5009435;28;20612;-90
2021/10/22 01:35:41;;;;;;;2.23;1.70;;;15.30;99.90;;;;;;5014907;28;20266;-91
2021/10/22 01:38:20;;;;;;;4.53;1.47;;;15.10;99.90;;;;;;5013218;28;20201;-91
2021/10/22 01:40:54;;;;;;;2.03;1.60;;;15.00;99.90;;;;;;5000005;28;20202;-89
2021/10/22 01:43:28;;;;;;;4.67;3.90;;;14.90;99.90;;;;;;5001289;28;20209;-90
2021/10/22 01:46:00;;;;;;;2.17;1.30;;;14.80;99.90;;;;;;4997891;28;20695;-91
2021/10/22 01:48:34;;;;;;;2.90;1.40;;;14.70;99.90;;;;;;5003193;28;20181;-91
2021/10/22 01:51:08;;;;;;;1.87;1.00;;;14.60;99.90;;;;;;5012118;28;20221;-90
2021/10/22 01:53:43;;;;;;;2.87;1.20;;;14.60;99.90;;;;;;5010668;28;20265;-91
2021/10/22 01:56:15;;;;;;;2.30;1.00;;;14.50;99.90;;;;;;5009456;28;20201;-90
2021/10/22 01:58:47;;;;;;;1.53;0.90;;;14.40;99.90;;;;;;4978100;28;20207;-91
2021/10/22 02:01:20;;;;;;;1.43;1.00;;;14.10;99.90;;;;;;4980329;28;20199;-91
2021/10/22 02:03:51;;;;;;;1.60;0.80;;;14.00;99.90;;;;;;4986714;28;20191;-91
2021/10/22 02:06:23;;;;;;;2.20;0.90;;;14.00;99.90;;;;;;4982630;28;20198;-90
2021/10/22 02:08:56;;;;;;;1.67;1.27;;;13.80;99.90;;;;;;4982313;28;20896;-92
2021/10/22 02:11:28;;;;;;;1.97;1.37;;;13.80;99.90;;;;;;4989297;28;20227;-90
2021/10/22 02:14:00;;;;;;;2.70;1.43;;;13.70;99.90;;;;;;4972494;28;20210;-89
2021/10/22 02:16:33;;;;;;;3.30;1.70;;;13.60;99.90;;;;;;4989366;28;20198;-89
2021/10/22 02:19:04;;;;;;;2.63;1.50;;;13.60;99.90;;;;;;4989395;28;20258;-90
2021/10/22 02:21:36;;;;;;;2.40;1.23;;;13.60;99.90;;;;;;4975360;28;20228;-90
2021/10/22 02:24:11;;;;;;;4.30;1.40;;;13.50;99.90;;;;;;4972729;28;20224;-89
2021/10/22 02:26:43;;;;;;;3.50;1.27;;;13.40;99.90;;;;;;4970099;28;20728;-90
2021/10/22 02:29:15;;;;;;;2.07;1.20;;;13.40;99.90;;;;;;4958765;29;20307;-91
2021/10/22 02:31:48;;;;;;;2.53;1.57;;;13.30;99.90;;;;;;4983468;28;20211;-89
2021/10/22 02:34:41;;;;;;;2.83;1.13;;;13.30;99.90;;;;;;4971497;28;20208;-91
2021/10/22 02:37:16;;;;;;;1.80;1.10;;;13.30;99.90;;;;;;4984421;28;20310;-89
2021/10/22 02:39:52;;;;;;;2.63;0.97;;;13.30;99.90;;;;;;4990835;28;20207;-90
2021/10/22 02:42:23;;;;;;;2.20;1.13;;;13.30;99.90;;;;;;4983841;28;20665;-89
2021/10/22 02:45:02;;;;;;;1.43;0.90;;;13.20;99.90;;;;;;4990054;28;20186;-90
2021/10/22 02:47:35;;;;;;;1.60;0.93;;;13.20;99.90;;;;;;4990247;28;20225;-90
2021/10/22 02:50:08;;;;;;;2.40;1.10;;;13.20;99.90;;;;;;4983101;28;20219;-89
2021/10/22 02:52:41;;;;;;;1.03;0.80;;;13.20;99.90;;;;;;4992578;28;20242;-91
2021/10/22 02:55:18;;;;;;;1.83;0.90;;;13.20;99.90;;;;;;4994494;28;20206;-91
2021/10/22 03:00:25;;;;;;;2.40;0.87;;;13.10;99.90;;;;;;5400553;23;20237;-89
2021/10/22 03:02:57;;;;;;;2.10;1.00;;;13.00;99.90;;;;;;5016486;28;20221;-90
2021/10/22 03:05:30;;;;;;;2.23;1.40;;;13.00;99.90;;;;;;5014377;28;20241;-88
2021/10/22 03:08:03;;;;;;;2.00;0.90;;;12.90;99.90;;;;;;5033134;28;20209;-87
2021/10/22 03:10:37;;;;;;;5.10;1.23;;;12.90;99.90;;;;;;5013070;28;20216;-88
2021/10/22 03:13:09;;;;;;;1.80;0.90;;;12.90;99.90;;;;;;5013018;28;20194;-88
2021/10/22 03:15:43;;;;;;;1.57;0.97;;;12.90;99.90;;;;;;5015307;28;20198;-89
2021/10/22 03:18:15;;;;;;;3.70;1.57;;;12.80;99.90;;;;;;5014942;28;20193;-88
2021/10/22 03:20:47;;;;;;;4.53;1.30;;;12.80;99.90;;;;;;5026192;28;20221;-87
2021/10/22 03:23:19;;;;;;;2.57;1.33;;;12.70;99.90;;;;;;5023307;28;20217;-88
2021/10/22 03:25:58;;;;;;;3.23;1.10;;;12.80;99.90;;;;;;5022890;28;20221;-88
2021/10/22 03:28:32;;;;;;;3.23;1.70;;;12.80;99.90;;;;;;5027643;28;20214;-87
2021/10/22 03:31:04;;;;;;;3.10;1.20;;;12.70;99.90;;;;;;5029575;28;20205;-89
2021/10/22 03:33:36;;;;;;;2.17;1.50;;;12.70;99.90;;;;;;5025480;28;20205;-87
2021/10/22 03:36:08;;;;;;;2.93;1.60;;;12.70;99.90;;;;;;5016273;28;20273;-84
2021/10/22 03:38:40;;;;;;;4.93;1.57;;;12.60;99.90;;;;;;5016788;28;20249;-83
2021/10/22 03:41:13;;;;;;;2.37;1.40;;;12.60;99.90;;;;;;5013935;28;20273;-83
2021/10/22 03:43:44;;;;;;;2.17;1.40;;;12.50;99.90;;;;;;5028484;28;20209;-84
2021/10/22 03:46:16;;;;;;;2.20;1.30;;;12.50;99.90;;;;;;5030478;28;20201;-84
2021/10/22 03:48:47;;;;;;;2.43;1.40;;;12.50;99.90;;;;;;5028766;28;20272;-85
2021/10/22 03:51:21;;;;;;;3.27;1.37;;;12.50;99.90;;;;;;5030214;28;20243;-85
2021/10/22 03:53:52;;;;;;;3.53;1.57;;;12.50;99.90;;;;;;5019375;28;20221;-84
2021/10/22 03:56:26;;;;;;;7.43;1.90;;;12.50;99.90;;;;;;5007623;28;20230;-85
2021/10/22 03:58:57;;;;;;;4.30;1.23;;;12.50;99.90;;;;;;5009862;28;20233;-85
2021/10/22 04:01:30;;;;;;;3.03;1.50;;;12.50;99.90;;;;;;5007281;28;20217;-84
2021/10/22 04:04:01;;;;;;;3.53;1.20;;;12.50;99.90;;;;;;5007727;28;20194;-85
2021/10/22 04:06:32;;;;;;;2.13;1.30;;;12.50;99.90;;;;;;5008095;28;20206;-85
2021/10/22 04:09:03;;;;;;;1.90;1.40;;;12.50;99.90;;;;;;5010915;28;20210;-87
2021/10/22 04:11:37;;;;;;;1.50;1.30;;;12.50;99.90;;;;;;5009741;28;20230;-87
2021/10/22 04:14:12;;;;;;;3.03;1.80;;;12.40;99.90;;;;;;5008676;28;20265;-88
2021/10/22 04:16:45;;;;;;;3.87;2.27;;;12.40;99.90;;;;;;5007888;28;20206;-88
2021/10/22 04:19:16;;;;;;;2.60;1.53;;;12.40;99.90;;;;;;5009594;28;20222;-87
2021/10/22 04:21:47;;;;;;;2.60;1.20;;;12.40;99.90;;;;;;5011229;28;20206;-87
2021/10/22 04:24:19;;;;;;;1.43;1.27;;;12.40;99.90;;;;;;5009170;28;20284;-88
2021/10/22 04:26:52;;;;;;;2.63;1.57;;;12.40;99.90;;;;;;5003338;28;20632;-87
2021/10/22 04:29:24;;;;;;;3.33;1.50;;;12.40;99.90;;;;;;5006176;28;20207;-87
2021/10/22 04:31:57;;;;;;;2.07;1.27;;;12.50;99.90;;;;;;5011228;28;20227;-87
2021/10/22 04:34:28;;;;;;;1.60;1.10;;;12.50;99.90;;;;;;5010879;28;20209;-87
2021/10/22 04:37:21;;;;;;;2.50;1.40;;;12.50;99.90;;;;;;5010172;28;20298;-87
2021/10/22 04:42:50;;;;;;;3.60;1.20;;;12.50;99.90;;;;;;5182558;23;20277;-87
2021/10/22 04:45:22;;;;;;;2.93;1.27;;;12.50;99.90;;;;;;5006731;28;20269;-88
2021/10/22 04:48:07;;;;;;;2.50;1.30;;;12.50;99.90;;;;;;4997155;28;20241;-89
2021/10/22 04:50:43;;;;;;;3.70;1.20;;;12.60;99.90;;;;;;4997099;28;20230;-88
2021/10/22 04:53:15;;;;;;;3.10;1.30;;;12.50;99.90;;;;;;4999392;28;20627;-88
2021/10/22 04:58:47;;;;;;;2.10;1.17;;;12.50;99.90;;;;;;4974193;28;20223;-86
2021/10/22 05:01:18;;;;;;;4.80;1.60;;;12.50;99.90;;;;;;4979227;28;20217;-88
2021/10/22 05:03:53;;;;;;;1.77;1.10;;;12.50;99.90;;;;;;4972765;28;20275;-86
2021/10/22 05:06:25;;;;;;;2.30;1.30;;;12.50;99.90;;;;;;4986307;28;20203;-88
2021/10/22 05:08:56;;;;;;;1.50;1.20;;;12.50;99.90;;;;;;4972104;28;20239;-88
2021/10/22 05:11:29;;;;;;;2.73;1.00;;;12.50;99.90;;;;;;4966010;28;20204;-88
2021/10/22 05:14:07;;;;;;;1.53;0.80;;;12.50;99.90;;;;;;4966702;28;20246;-90
2021/10/22 05:16:40;;;;;;;1.97;1.30;;;12.50;99.90;;;;;;4971236;28;20223;-88
2021/10/22 05:19:12;;;;;;;2.47;1.10;;;12.60;99.90;;;;;;4969707;28;20221;-88
2021/10/22 05:21:44;;;;;;;2.43;1.20;;;12.60;99.90;;;;;;4960646;28;20203;-88
2021/10/22 05:24:15;;;;;;;4.73;1.40;;;12.60;99.90;;;;;;4971254;28;20218;-89
2021/10/22 05:26:47;;;;;;;1.37;1.00;;;12.60;99.90;;;;;;4975601;28;20196;-89
2021/10/22 05:29:21;;;;;;;4.70;1.40;;;12.60;99.90;;;;;;4959143;28;20259;-90
2021/10/22 05:31:53;;;;;;;1.63;1.03;;;12.60;99.90;;;;;;4960387;28;20559;-88
2021/10/22 05:34:24;;;;;;;1.80;1.10;;;12.60;99.90;;;;;;4959806;28;20340;-88
2021/10/22 05:36:56;;;;;;;4.30;1.17;;;12.60;99.90;;;;;;4959641;28;20674;-89
2021/10/22 05:39:35;;;;;;;1.03;0.93;;;12.60;99.90;;;;;;4961160;28;20208;-87
2021/10/22 05:42:10;;;;;;;1.43;0.90;;;12.60;99.90;;;;;;4961575;28;20230;-89
2021/10/22 05:44:46;;;;;;;2.20;0.97;;;12.60;99.90;;;;;;4972792;28;20207;-89
2021/10/22 05:47:17;;;;;;;1.63;1.20;;;12.60;99.90;;;;;;4986285;28;20191;-90
2021/10/22 05:49:49;;;;;;;0.93;0.83;;;12.60;99.90;;;;;;4980576;28;20184;-89
2021/10/22 05:52:21;;;;;;;1.43;1.00;;;12.60;99.90;;;;;;4982821;28;20237;-88
2021/10/22 05:54:53;;;;;;;1.63;0.90;;;12.60;99.90;;;;;;4978000;28;20219;-92
2021/10/22 05:57:25;;;;;;;2.13;1.00;;;12.50;99.90;;;;;;4976284;28;20232;-89
2021/10/22 05:59:58;;;;;;;2.00;0.90;;;12.60;99.90;;;;;;4992946;28;20203;-89
2021/10/22 06:02:31;;;;;;;0.63;0.53;;;12.60;99.90;;;;;;4963726;28;20208;-87
2021/10/22 06:05:02;;;;;;;1.97;0.97;;;12.50;99.90;;;;;;4972503;28;20548;-89
2021/10/22 06:07:33;;;;;;;2.43;1.03;;;12.60;99.90;;;;;;4965093;28;20223;-89
2021/10/22 06:10:05;;;;;;;1.37;0.60;;;12.60;99.90;;;;;;4962441;28;20215;-89
2021/10/22 06:12:37;;;;;;;1.53;0.63;;;12.60;99.90;;;;;;4959481;28;20239;-90
2021/10/22 06:15:13;;;;;;;1.37;0.70;;;12.60;99.90;;;;;;4968747;28;20212;-90
2021/10/22 06:17:44;;;;;;;2.87;0.90;;;12.60;99.90;;;;;;4966488;28;20266;-89
2021/10/22 06:20:26;;;;;;;4.13;0.83;;;12.50;99.90;;;;;;4967087;28;20200;-89
2021/10/22 06:25:46;;;;;;;1.90;0.70;;;12.50;99.90;;;;;;4960650;28;20227;-89
2021/10/22 06:28:18;;;;;;;1.23;1.00;;;12.50;99.90;;;;;;4958401;28;20219;-87
2021/10/22 06:30:58;;;;;;;3.77;0.93;;;12.50;99.90;;;;;;4967019;28;20210;-89
2021/10/22 06:33:29;;;;;;;2.90;1.13;;;12.50;99.90;;;;;;4980037;28;20235;-88
2021/10/22 06:36:03;;;;;;;0.90;0.80;;;12.50;99.90;;;;;;4976699;28;20239;-88
2021/10/22 06:38:34;;;;;;;1.47;0.80;;;12.60;99.90;;;;;;4976720;28;20214;-89
2021/10/22 06:41:07;;;;;;;3.13;1.23;;;12.50;99.90;;;;;;4958993;28;20283;-89
2021/10/22 06:43:40;;;;;;;3.13;0.90;;;12.50;99.90;;;;;;4964214;28;20235;-88
2021/10/22 06:46:15;;;;;;;3.20;1.10;;;12.50;99.90;;;;;;4961869;28;20582;-88
2021/10/22 06:48:47;;;;;;;2.83;1.20;;;12.50;99.90;;;;;;4978608;28;20215;-89
2021/10/22 06:51:19;;;;;;;0.63;0.63;;;12.50;99.90;;;;;;4961435;28;20667;-88
2021/10/22 06:53:51;;;;;;;2.27;1.10;;;12.50;99.90;;;;;;4957954;28;20243;-89
2021/10/22 06:56:22;;;;;;;4.67;1.17;;;12.50;99.90;;;;;;4957355;28;20599;-88
2021/10/22 06:58:54;;;;;;;1.30;0.90;;;12.50;99.90;;;;;;4975979;28;20211;-89
2021/10/22 07:01:27;;;;;;;1.90;1.17;;;12.50;99.90;;;;;;4976442;28;20203;-88
2021/10/22 07:03:59;;;;;;;2.40;0.90;;;12.50;99.90;;;;;;4976870;28;20214;-89
2021/10/22 07:09:18;;;;;;;1.73;1.20;;;12.50;99.90;;;;;;4976749;28;20281;-88
2021/10/22 07:11:49;;;;;;;4.13;1.10;;;12.50;99.90;;;;;;4977229;28;20265;-89
2021/10/22 07:14:20;;;;;;;5.43;1.10;;;12.50;99.90;;;;;;4957879;28;20673;-89
2021/10/22 07:16:52;;;;;;;3.53;1.10;;;12.50;99.90;;;;;;4957047;28;20208;-88
2021/10/22 07:19:25;;;;;;;4.10;1.10;;;12.50;99.90;;;;;;4958104;28;20620;-89
2021/10/22 07:22:01;;;;;;;2.93;1.00;;;12.50;99.90;;;;;;4957900;28;20239;-88
2021/10/22 07:24:32;;;;;;;2.53;1.30;;;12.50;99.90;;;;;;4973706;28;20218;-89
2021/10/22 07:27:04;;;;;;;1.13;0.97;;;12.50;99.90;;;;;;4976350;28;20210;-89
2021/10/22 07:29:35;;;;;;;2.50;1.10;;;12.50;99.90;;;;;;4959239;28;20219;-89
2021/10/22 07:32:09;;;;;;;1.90;0.87;;;12.50;99.90;;;;;;4957045;28;20207;-89
2021/10/22 07:34:48;;;;;;;0.60;0.60;;;12.50;99.90;;;;;;4957228;28;20243;-89
2021/10/22 07:37:21;;;;;;;2.40;1.00;;;12.50;99.90;;;;;;4958290;28;20234;-88
2021/10/22 07:39:53;;;;;;;1.00;0.90;;;12.50;99.90;;;;;;4957873;28;20247;-88
2021/10/22 07:42:25;;;;;;;2.93;1.27;;;12.50;99.90;;;;;;4985509;28;20228;-87
2021/10/22 07:44:56;;;;;;;1.93;1.00;;;12.50;99.90;;;;;;4997381;28;20215;-90
2021/10/22 07:47:29;;;;;;;1.77;0.97;;;12.50;99.90;;;;;;4999529;28;20210;-88
2021/10/22 07:50:00;;;;;;;1.47;0.70;;;12.40;99.90;;;;;;4993246;28;20211;-89
2021/10/22 07:52:32;;;;;;;1.27;0.80;;;12.40;99.90;;;;;;4979942;28;20210;-89
2021/10/22 07:55:05;;;;;;;2.87;0.90;;;12.40;99.90;;;;;;4981155;28;20693;-88
2021/10/22 07:57:36;;;;;;;2.03;0.93;;;12.40;99.90;;;;;;4989467;28;20207;-88
2021/10/22 08:00:11;;;;;;;0.97;0.70;;;12.30;99.90;;;;;;4985270;28;20211;-88
2021/10/22 08:02:44;;;;;;;1.27;0.70;;;12.30;99.90;;;;;;4981224;28;20196;-88
2021/10/22 08:08:01;;;;;;;1.03;0.70;;;12.30;99.90;;;;;;4983407;28;20294;-89
2021/10/22 08:10:32;;;;;;;0.80;0.60;;;12.30;99.90;;;;;;4990255;28;20207;-88
2021/10/22 08:13:05;;;;;;;2.60;0.50;;;12.20;99.90;;;;;;4994897;28;20199;-88
2021/10/22 08:15:42;;;;;;;1.43;0.90;;;12.20;99.90;;;;;;4990990;28;20218;-88
2021/10/22 08:18:16;;;;;;;1.93;0.70;;;12.20;99.90;;;;;;4967334;28;20252;-88
2021/10/22 08:20:54;;;;;;;1.97;0.60;;;12.20;99.90;;;;;;4964914;28;20207;-89
2021/10/22 08:23:25;;;;;;;2.13;0.70;;;12.20;99.90;;;;;;4965830;28;20219;-88
2021/10/22 08:25:57;;;;;;;1.30;0.60;;;12.20;99.90;;;;;;4985976;28;20233;-88
2021/10/22 08:28:30;;;;;;;1.73;0.80;;;12.10;99.90;;;;;;4998403;28;20195;-88
2021/10/22 08:31:02;;;;;;;1.00;0.63;;;12.10;99.90;;;;;;4999750;28;20195;-88
2021/10/22 08:33:36;;;;;;;1.47;0.60;;;12.10;99.90;;;;;;4989614;28;20191;-88
2021/10/22 08:36:08;;;;;;;1.37;0.70;;;12.10;99.90;;;;;;4998943;28;20231;-89
2021/10/22 08:38:41;;;;;;;2.50;0.57;;;12.10;99.90;;;;;;5000531;28;20222;-88
2021/10/22 08:41:17;;;;;;;0.67;0.60;;;12.10;99.90;;;;;;4999271;28;20230;-87
2021/10/22 08:43:50;;;;;;;2.60;0.80;;;12.00;99.90;;;;;;4999625;28;20198;-88
2021/10/22 08:46:22;;;;;;;0.80;0.70;;;12.00;99.90;;;;;;4975949;28;20215;-88
2021/10/22 08:48:56;;;;;;;2.43;0.90;;;12.00;99.90;;;;;;4966752;28;20212;-89
2021/10/22 08:51:28;;;;;;;1.57;0.80;;;12.00;99.90;;;;;;4967644;28;20218;-88
2021/10/22 08:53:59;;;;;;;2.00;0.73;;;12.00;99.90;;;;;;4974722;28;20236;-88
2021/10/22 08:56:32;;;;;;;0.83;0.70;;;12.00;99.90;;;;;;4972161;28;20587;-87
2021/10/22 08:59:04;;;;;;;1.00;0.70;;;11.90;99.90;;;;;;4969528;28;20204;-88
2021/10/22 09:01:35;;;;;;;1.77;0.77;;;11.90;99.90;;;;;;4963347;28;20215;-88
2021/10/22 09:04:29;;;;;;;1.53;0.60;;;11.90;99.90;;;;;;4973220;28;20212;-87
2021/10/22 09:07:01;;;;;;;3.23;0.90;;;11.90;99.90;;;;;;4964798;28;20248;-88
2021/10/22 09:09:32;;;;;;;2.03;0.90;;;11.90;99.90;;;;;;4968624;28;20207;-88
2021/10/22 09:12:03;;;;;;;3.07;1.00;;;11.90;99.90;;;;;;4992729;28;20234;-89
2021/10/22 09:14:37;;;;;;;1.90;0.77;;;11.90;99.90;;;;;;4981412;28;20238;-88
2021/10/22 09:17:13;;;;;;;1.30;1.00;;;11.90;99.90;;;;;;5023328;23;20238;-88
2021/10/22 09:19:49;;;;;;;1.70;0.50;;;11.90;99.90;;;;;;4999672;28;20214;-88
2021/10/22 09:22:30;;;;;;;4.10;0.63;;;11.90;99.90;;;;;;4980200;28;20239;-89
2021/10/22 09:25:06;;;;;;;2.00;0.70;;;11.90;99.90;;;;;;4980838;28;20211;-89
2021/10/22 09:27:42;;;;;;;1.37;0.60;;;11.80;99.90;;;;;;4988533;28;20210;-89
2021/10/22 09:30:31;;;;;;;4.37;0.60;;;11.80;99.90;;;;;;5000579;28;20209;-89
2021/10/22 09:33:05;;;;;;;0.77;0.77;;;11.80;99.90;;;;;;4999562;28;20207;-89
2021/10/22 09:35:45;;;;;;;1.47;0.73;;;11.80;99.90;;;;;;5000006;28;20427;-89
2021/10/22 09:38:21;;;;;;;2.63;0.60;;;11.80;99.90;;;;;;4980765;28;20315;-89
2021/10/22 09:40:55;;;;;;;1.27;0.63;;;11.80;99.90;;;;;;4979111;28;20257;-89
2021/10/22 09:43:30;;;;;;;1.20;0.57;;;11.80;99.90;;;;;;4980527;28;20313;-89
2021/10/22 09:46:14;;;;;;;5.10;0.93;;;11.70;99.90;;;;;;4979008;28;20210;-89
2021/10/22 09:48:46;;;;;;;0.97;0.60;;;11.70;99.90;;;;;;4983854;28;20207;-89
2021/10/22 09:51:28;;;;;;;0.97;0.47;;;11.70;99.90;;;;;;4999522;28;20206;-89
2021/10/22 09:54:04;;;;;;;1.20;0.60;;;11.70;99.90;;;;;;4994568;28;20214;-87
2021/10/22 09:56:35;;;;;;;2.47;0.60;;;11.60;99.90;;;;;;4959496;28;20211;-89
2021/10/22 09:59:09;;;;;;;1.13;0.50;;;11.60;99.90;;;;;;4990803;28;20242;-89
2021/10/22 10:01:44;;;;;;;2.07;0.60;;;11.60;99.90;;;;;;4979072;28;20207;-89
2021/10/22 10:04:17;;;;;;;1.33;0.47;;;11.60;99.90;;;;;;4963933;28;20216;-89
2021/10/22 10:07:07;;;;;;;1.90;0.40;;;11.60;99.90;;;;;;4960728;28;20245;-89
2021/10/22 10:09:40;;;;;;;0.70;0.53;;;11.60;99.90;;;;;;4961548;28;20234;-89
2021/10/22 10:12:13;;;;;;;1.27;0.50;;;11.60;99.90;;;;;;4974318;28;20211;-88
2021/10/22 10:14:45;;;;;;;1.07;0.47;;;11.60;99.90;;;;;;4980371;28;20596;-89
2021/10/22 10:17:16;;;;;;;0.70;0.60;;;11.60;99.90;;;;;;4995537;28;20199;-89
2021/10/22 10:19:52;;;;;;;2.60;0.60;;;11.60;99.90;;;;;;4997784;28;20259;-89
2021/10/22 10:22:31;;;;;;;2.17;0.70;;;11.60;99.90;;;;;;4970179;28;20210;-88
2021/10/22 10:25:06;;;;;;;1.10;0.50;;;11.60;99.90;;;;;;4960941;28;20216;-89
2021/10/22 10:27:47;;;;;;;1.20;0.60;;;11.50;99.90;;;;;;4960258;28;20214;-88
2021/10/22 10:30:29;;;;;;;1.57;0.70;;;11.40;99.90;;;;;;4957976;28;20650;-88
2021/10/22 10:33:01;;;;;;;2.10;0.70;;;11.40;99.90;;;;;;4960284;28;20228;-88
2021/10/22 10:35:37;;;;;;;0.80;0.53;;;11.40;99.90;;;;;;4957410;28;20235;-88
2021/10/22 10:38:12;;;;;;;3.10;0.70;;;11.40;99.90;;;;;;4962060;28;20218;-88
2021/10/22 10:40:45;;;;;;;0.80;0.60;;;11.40;99.90;;;;;;4976766;28;20238;-89
2021/10/22 10:43:23;;;;;;;1.40;0.60;;;11.40;99.90;;;;;;4978142;28;20870;-89
2021/10/22 10:45:54;;;;;;;1.83;0.50;;;11.40;99.90;;;;;;4977125;28;20227;-89
2021/10/22 10:48:25;;;;;;;2.43;0.43;;;11.40;99.90;;;;;;4977368;28;20211;-89
2021/10/22 10:51:03;;;;;;;1.47;0.53;;;11.40;99.90;;;;;;4977715;28;20249;-89
2021/10/22 10:53:39;;;;;;;2.37;0.70;;;11.50;99.90;;;;;;4970141;28;20242;-89
2021/10/22 10:56:22;;;;;;;2.33;0.60;;;11.50;99.90;;;;;;4964589;28;20242;-90
2021/10/22 10:58:56;;;;;;;5.53;0.60;;;11.40;99.90;;;;;;4977739;28;20416;-89
2021/10/22 11:01:29;;;;;;;0.50;0.50;;;11.50;99.90;;;;;;4978522;28;20242;-88
2021/10/22 11:04:00;;;;;;;2.00;0.50;;;11.50;99.90;;;;;;4977249;28;20277;-89
2021/10/22 11:06:42;;;;;;;0.90;0.67;;;11.50;99.90;;;;;;4959127;28;20306;-89
2021/10/22 11:09:43;;;;;;;1.13;0.60;;;11.50;99.90;;;;;;4958941;28;20266;-89
2021/10/22 11:12:14;;;;;;;0.53;0.50;;;11.50;99.90;;;;;;4976867;28;20580;-89
2021/10/22 11:14:45;;;;;;;0.83;0.60;;;11.50;99.90;;;;;;4965327;28;20219;-87
2021/10/22 11:17:28;;;;;;;1.43;0.50;;;11.50;99.90;;;;;;4956868;29;20255;-88
2021/10/22 11:20:00;;;;;;;1.13;0.63;;;11.50;99.90;;;;;;4958368;28;20611;-88
2021/10/22 11:22:31;;;;;;;0.50;0.47;;;11.50;99.90;;;;;;4962992;28;20219;-88
2021/10/22 11:25:11;;;;;;;1.40;0.53;;;11.50;99.90;;;;;;4976414;28;20252;-88
2021/10/22 11:27:43;;;;;;;0.60;0.60;;;11.50;99.90;;;;;;4976706;28;20202;-88
2021/10/22 11:30:14;;;;;;;1.70;0.67;;;11.50;99.90;;;;;;4981390;28;20218;-88
2021/10/22 11:32:47;;;;;;;0.80;0.57;;;11.50;99.90;;;;;;4962472;28;20211;-87
2021/10/22 11:35:28;;;;;;;0.50;0.50;;;11.50;99.90;;;;;;4962800;28;20231;-89
2021/10/22 11:38:05;;;;;;;1.67;0.80;;;11.40;99.90;;;;;;4963051;28;20231;-90
2021/10/22 11:40:41;;;;;;;2.53;0.77;;;11.40;99.90;;;;;;4967214;28;20199;-88
2021/10/22 11:43:13;;;;;;;1.27;0.70;;;11.40;99.90;;;;;;5012507;23;20295;-88
2021/10/22 11:45:46;;;;;;;3.27;0.60;;;11.40;99.90;;;;;;5000159;28;20225;-88
2021/10/22 11:48:33;;;;;;;0.97;0.60;;;11.40;99.90;;;;;;5000725;28;20242;-89
2021/10/22 11:51:12;;;;;;;1.57;0.70;;;11.40;99.90;;;;;;4980280;28;20630;-89
2021/10/22 11:53:43;;;;;;;1.40;0.50;;;11.40;99.90;;;;;;4989527;28;20214;-88
2021/10/22 11:56:20;;;;;;;2.30;0.90;;;11.40;99.90;;;;;;4979830;28;20234;-88
2021/10/22 11:58:51;;;;;;;0.83;0.60;;;11.40;99.90;;;;;;4980004;28;20765;-88
2021/10/22 12:01:23;;;;;;;2.63;0.70;;;11.40;99.90;;;;;;4980306;28;20207;-88
2021/10/22 12:03:56;;;;;;;1.20;0.70;;;11.40;99.90;;;;;;4962301;28;20207;-89
2021/10/22 12:06:27;;;;;;;0.80;0.70;;;11.30;99.90;;;;;;4963773;28;20207;-89
2021/10/22 12:08:59;;;;;;;0.60;0.50;;;11.40;99.90;;;;;;4981257;28;20246;-89
2021/10/22 12:11:33;;;;;;;2.00;0.80;;;11.40;99.90;;;;;;4967681;28;20231;-88
2021/10/22 12:14:04;;;;;;;1.90;0.83;;;11.30;99.90;;;;;;4961515;29;20212;-88
2021/10/22 12:16:35;;;;;;;2.40;0.80;;;11.30;99.90;;;;;;4960964;28;20263;-88
2021/10/22 12:19:06;;;;;;;3.07;0.70;;;11.20;99.90;;;;;;4974854;28;20310;-89
2021/10/22 12:21:38;;;;;;;1.07;0.63;;;11.20;99.90;;;;;;4980648;28;20230;-88
2021/10/22 12:24:14;;;;;;;1.17;0.77;;;11.20;99.90;;;;;;4980327;28;20565;-88
2021/10/22 12:26:47;;;;;;;3.37;0.70;;;11.20;99.90;;;;;;4989877;28;20198;-89
2021/10/22 12:29:19;;;;;;;2.60;0.97;;;11.20;99.90;;;;;;4999896;28;20214;-88
2021/10/22 12:31:54;;;;;;;1.20;0.70;;;11.20;99.90;;;;;;4998471;28;20203;-89
2021/10/22 12:34:31;;;;;;;1.57;0.80;;;11.20;99.90;;;;;;4980308;28;20210;-88
2021/10/22 12:37:09;;;;;;;2.80;0.90;;;11.20;99.90;;;;;;4979801;28;20317;-88
2021/10/22 12:39:43;;;;;;;1.53;0.67;;;11.20;99.90;;;;;;4980739;28;20211;-89
2021/10/22 12:42:26;;;;;;;3.13;0.60;;;11.20;99.90;;;;;;4973537;28;20271;-88
2021/10/22 12:45:16;;;;;;;2.10;0.70;;;11.20;99.90;;;;;;4969354;28;20218;-89
2021/10/22 12:47:48;;;;;;;2.33;0.70;;;11.20;99.90;;;;;;4984688;28;20230;-88
2021/10/22 12:50:26;;;;;;;1.50;0.70;;;11.20;99.90;;;;;;4998799;28;20214;-88
2021/10/22 12:52:59;;;;;;;3.20;0.60;;;11.20;99.90;;;;;;4963938;28;20211;-89
2021/10/22 12:55:31;;;;;;;1.43;0.77;;;11.20;99.90;;;;;;4979143;28;20231;-88
2021/10/22 12:58:19;;;;;;;2.10;0.80;;;11.20;99.90;;;;;;4979580;28;20288;-88
2021/10/22 13:01:11;;;;;;;0.60;0.60;;;11.20;99.90;;;;;;4979598;28;20650;-89
2021/10/22 13:03:44;;;;;;;2.20;0.70;;;11.20;99.90;;;;;;4959934;28;20271;-88
2021/10/22 13:06:35;;;;;;;0.90;0.60;;;11.20;99.90;;;;;;4960618;28;20231;-88
2021/10/22 13:20:51;;;;;;;0.90;0.70;;;11.20;99.90;;;;;;4906509;28;20284;-88
2021/10/22 13:23:22;;;;;;;1.27;0.83;;;11.30;99.90;;;;;;4959704;28;20246;-87
2021/10/22 13:25:55;;;;;;;1.63;0.67;;;11.30;99.90;;;;;;4961162;28;20211;-87
2021/10/22 13:28:32;;;;;;;1.73;0.93;;;11.30;99.90;;;;;;4973432;28;20211;-87
2021/10/22 13:31:07;;;;;;;1.73;1.00;;;11.30;99.90;;;;;;4979715;28;20270;-88
2021/10/22 13:33:39;;;;;;;3.17;0.80;;;11.20;99.90;;;;;;4979429;28;20210;-87
2021/10/22 13:36:10;;;;;;;1.53;0.80;;;11.30;99.90;;;;;;4964801;28;20484;-88
2021/10/22 13:38:42;;;;;;;2.40;0.90;;;11.20;99.90;;;;;;4961220;28;20618;-88
2021/10/22 13:41:17;;;;;;;1.37;0.90;;;11.30;99.90;;;;;;4979049;28;20207;-89
2021/10/22 13:43:48;;;;;;;1.50;0.87;;;11.30;99.90;;;;;;4979148;28;20215;-88
2021/10/22 13:46:21;;;;;;;2.23;0.77;;;11.20;99.90;;;;;;4971316;28;20207;-89
2021/10/22 13:48:53;;;;;;;1.10;1.00;;;11.30;99.90;;;;;;4959775;28;20561;-89
2021/10/22 13:51:25;;;;;;;1.50;1.03;;;11.20;99.90;;;;;;4959397;28;20218;-88
2021/10/22 13:53:56;;;;;;;1.70;1.00;;;11.30;99.90;;;;;;4963397;28;20291;-89